sensor_id;sensor_type;location;lat;lon;timestamp;P1;durP1;ratioP1;P2;durP2;ratioP2
63008;SDS011;49099;28.428;-16.488;2023-04-03T00:01:09;32.55;;;5.43;;
63008;SDS011;49099;28.428;-16.488;2023-04-03T00:03:36;25.23;;;5.07;;
63008;SDS011;49099;28.428;-16.488;2023-04-03T00:06:03;27.23;;;5.50;;
63008;SDS011;49099;28.428;-16.488;2023-04-03T00:08:33;29.45;;;4.93;;
63008;SDS011;49099;28.428;-16.488;2023-04-03T00:11:01;26.05;;;5.25;;
63008;SDS011;49099;28.428;-16.488;2023-04-03T00:13:28;28.63;;;5.00;;
63008;SDS011;49099;28.428;-16.488;2023-04-03T00:15:56;27.58;;;4.88;;
63008;SDS011;49099;28.428;-16.488;2023-04-03T00:18:23;28.77;;;4.85;;
63008;SDS011;49099;28.428;-16.488;2023-04-03T00:20:51;28.08;;;5.18;;
63008;SDS011;49099;28.428;-16.488;2023-04-03T00:23:18;25.55;;;4.82;;
63008;SDS011;49099;28.428;-16.488;2023-04-03T00:25:45;29.25;;;5.03;;
63008;SDS011;49099;28.428;-16.488;2023-04-03T00:28:12;22.17;;;5.05;;
63008;SDS011;49099;28.428;-16.488;2023-04-03T00:30:39;40.53;;;6.05;;
63008;SDS011;49099;28.428;-16.488;2023-04-03T00:33:06;27.40;;;5.20;;
63008;SDS011;49099;28.428;-16.488;2023-04-03T00:35:34;33.97;;;5.70;;
63008;SDS011;49099;28.428;-16.488;2023-04-03T00:38:01;25.98;;;4.70;;
63008;SDS011;49099;28.428;-16.488;2023-04-03T00:40:32;24.88;;;4.82;;
63008;SDS011;49099;28.428;-16.488;2023-04-03T00:43:02;31.50;;;5.40;;
63008;SDS011;49099;28.428;-16.488;2023-04-03T00:45:39;22.45;;;4.85;;
63008;SDS011;49099;28.428;-16.488;2023-04-03T00:48:10;28.08;;;4.63;;
63008;SDS011;49099;28.428;-16.488;2023-04-03T00:50:40;25.38;;;5.40;;
63008;SDS011;49099;28.428;-16.488;2023-04-03T00:53:11;24.17;;;4.90;;
63008;SDS011;49099;28.428;-16.488;2023-04-03T00:58:10;30.92;;;5.60;;
63008;SDS011;49099;28.428;-16.488;2023-04-03T01:00:40;26.05;;;4.78;;
63008;SDS011;49099;28.428;-16.488;2023-04-03T01:03:11;30.55;;;5.82;;
63008;SDS011;49099;28.428;-16.488;2023-04-03T01:05:39;26.42;;;4.70;;
63008;SDS011;49099;28.428;-16.488;2023-04-03T01:08:07;24.25;;;5.18;;
63008;SDS011;49099;28.428;-16.488;2023-04-03T01:10:34;18.98;;;4.22;;
63008;SDS011;49099;28.428;-16.488;2023-04-03T01:13:02;22.35;;;4.65;;
63008;SDS011;49099;28.428;-16.488;2023-04-03T01:15:45;22.02;;;4.68;;
63008;SDS011;49099;28.428;-16.488;2023-04-03T01:18:12;24.08;;;4.47;;
63008;SDS011;49099;28.428;-16.488;2023-04-03T01:23:14;19.95;;;4.50;;
63008;SDS011;49099;28.428;-16.488;2023-04-03T01:25:54;23.75;;;4.10;;
63008;SDS011;49099;28.428;-16.488;2023-04-03T01:28:30;23.23;;;4.70;;
63008;SDS011;49099;28.428;-16.488;2023-04-03T01:33:47;19.55;;;4.20;;
63008;SDS011;49099;28.428;-16.488;2023-04-03T01:36:19;22.85;;;4.18;;
63008;SDS011;49099;28.428;-16.488;2023-04-03T01:38:51;21.27;;;4.30;;
63008;SDS011;49099;28.428;-16.488;2023-04-03T01:41:19;21.23;;;4.70;;
63008;SDS011;49099;28.428;-16.488;2023-04-03T01:43:50;23.80;;;4.32;;
63008;SDS011;49099;28.428;-16.488;2023-04-03T01:46:17;23.67;;;4.45;;
63008;SDS011;49099;28.428;-16.488;2023-04-03T01:48:45;20.08;;;4.00;;
63008;SDS011;49099;28.428;-16.488;2023-04-03T01:51:12;18.50;;;4.00;;
63008;SDS011;49099;28.428;-16.488;2023-04-03T01:53:40;21.65;;;4.15;;
63008;SDS011;49099;28.428;-16.488;2023-04-03T01:56:07;17.58;;;3.50;;
63008;SDS011;49099;28.428;-16.488;2023-04-03T01:58:34;22.63;;;3.60;;
63008;SDS011;49099;28.428;-16.488;2023-04-03T02:01:02;16.50;;;4.05;;
63008;SDS011;49099;28.428;-16.488;2023-04-03T02:03:29;20.25;;;4.05;;
63008;SDS011;49099;28.428;-16.488;2023-04-03T02:05:57;15.75;;;3.60;;
63008;SDS011;49099;28.428;-16.488;2023-04-03T02:08:24;19.67;;;3.30;;
63008;SDS011;49099;28.428;-16.488;2023-04-03T02:10:52;23.00;;;4.38;;
63008;SDS011;49099;28.428;-16.488;2023-04-03T02:13:19;27.98;;;4.38;;
63008;SDS011;49099;28.428;-16.488;2023-04-03T02:15:46;20.23;;;3.60;;
63008;SDS011;49099;28.428;-16.488;2023-04-03T02:18:14;24.20;;;4.32;;
63008;SDS011;49099;28.428;-16.488;2023-04-03T02:20:42;21.92;;;4.18;;
63008;SDS011;49099;28.428;-16.488;2023-04-03T02:23:09;22.15;;;4.07;;
63008;SDS011;49099;28.428;-16.488;2023-04-03T02:25:36;18.05;;;3.55;;
63008;SDS011;49099;28.428;-16.488;2023-04-03T02:28:04;18.83;;;3.45;;
63008;SDS011;49099;28.428;-16.488;2023-04-03T02:30:32;17.45;;;3.63;;
63008;SDS011;49099;28.428;-16.488;2023-04-03T02:32:59;20.50;;;3.80;;
63008;SDS011;49099;28.428;-16.488;2023-04-03T02:35:26;20.33;;;4.15;;
63008;SDS011;49099;28.428;-16.488;2023-04-03T02:37:53;18.02;;;3.72;;
63008;SDS011;49099;28.428;-16.488;2023-04-03T02:40:21;21.45;;;3.72;;
63008;SDS011;49099;28.428;-16.488;2023-04-03T02:42:48;21.27;;;3.60;;
63008;SDS011;49099;28.428;-16.488;2023-04-03T02:45:15;17.48;;;3.53;;
63008;SDS011;49099;28.428;-16.488;2023-04-03T02:47:42;16.65;;;3.40;;
63008;SDS011;49099;28.428;-16.488;2023-04-03T02:50:09;13.20;;;3.05;;
63008;SDS011;49099;28.428;-16.488;2023-04-03T02:52:36;20.67;;;3.45;;
63008;SDS011;49099;28.428;-16.488;2023-04-03T02:55:03;17.67;;;3.28;;
63008;SDS011;49099;28.428;-16.488;2023-04-03T02:57:31;18.27;;;3.83;;
63008;SDS011;49099;28.428;-16.488;2023-04-03T02:59:58;18.33;;;3.90;;
63008;SDS011;49099;28.428;-16.488;2023-04-03T03:02:26;19.73;;;3.78;;
63008;SDS011;49099;28.428;-16.488;2023-04-03T03:04:53;15.75;;;3.58;;
63008;SDS011;49099;28.428;-16.488;2023-04-03T03:07:20;24.77;;;3.63;;
63008;SDS011;49099;28.428;-16.488;2023-04-03T03:09:47;18.77;;;3.80;;
63008;SDS011;49099;28.428;-16.488;2023-04-03T03:12:15;20.85;;;3.75;;
63008;SDS011;49099;28.428;-16.488;2023-04-03T03:14:42;24.20;;;4.18;;
63008;SDS011;49099;28.428;-16.488;2023-04-03T03:17:09;15.98;;;3.40;;
63008;SDS011;49099;28.428;-16.488;2023-04-03T03:19:36;15.77;;;3.88;;
63008;SDS011;49099;28.428;-16.488;2023-04-03T03:22:03;20.13;;;3.83;;
63008;SDS011;49099;28.428;-16.488;2023-04-03T03:24:30;12.90;;;2.97;;
63008;SDS011;49099;28.428;-16.488;2023-04-03T03:26:58;16.58;;;3.38;;
63008;SDS011;49099;28.428;-16.488;2023-04-03T03:29:25;21.10;;;4.18;;
63008;SDS011;49099;28.428;-16.488;2023-04-03T03:31:52;15.52;;;3.65;;
63008;SDS011;49099;28.428;-16.488;2023-04-03T03:34:20;16.90;;;3.15;;
63008;SDS011;49099;28.428;-16.488;2023-04-03T03:36:47;18.05;;;3.45;;
63008;SDS011;49099;28.428;-16.488;2023-04-03T03:39:14;23.60;;;3.53;;
63008;SDS011;49099;28.428;-16.488;2023-04-03T03:41:41;20.85;;;3.72;;
63008;SDS011;49099;28.428;-16.488;2023-04-03T03:44:08;19.60;;;3.75;;
63008;SDS011;49099;28.428;-16.488;2023-04-03T03:46:36;27.85;;;4.47;;
63008;SDS011;49099;28.428;-16.488;2023-04-03T03:49:03;20.15;;;4.03;;
63008;SDS011;49099;28.428;-16.488;2023-04-03T03:51:30;22.75;;;4.20;;
63008;SDS011;49099;28.428;-16.488;2023-04-03T03:53:58;18.75;;;3.40;;
63008;SDS011;49099;28.428;-16.488;2023-04-03T03:56:25;22.52;;;3.97;;
63008;SDS011;49099;28.428;-16.488;2023-04-03T03:58:53;17.73;;;3.58;;
63008;SDS011;49099;28.428;-16.488;2023-04-03T04:01:20;19.02;;;3.50;;
63008;SDS011;49099;28.428;-16.488;2023-04-03T04:03:47;17.17;;;3.75;;
63008;SDS011;49099;28.428;-16.488;2023-04-03T04:06:14;17.13;;;3.22;;
63008;SDS011;49099;28.428;-16.488;2023-04-03T04:08:42;14.25;;;2.95;;
63008;SDS011;49099;28.428;-16.488;2023-04-03T04:11:09;16.15;;;3.15;;
63008;SDS011;49099;28.428;-16.488;2023-04-03T04:13:36;16.98;;;3.17;;
63008;SDS011;49099;28.428;-16.488;2023-04-03T04:16:04;17.88;;;3.85;;
63008;SDS011;49099;28.428;-16.488;2023-04-03T04:18:31;17.30;;;3.47;;
63008;SDS011;49099;28.428;-16.488;2023-04-03T04:20:58;14.20;;;2.92;;
63008;SDS011;49099;28.428;-16.488;2023-04-03T04:23:26;14.65;;;3.20;;
63008;SDS011;49099;28.428;-16.488;2023-04-03T04:25:53;12.98;;;2.90;;
63008;SDS011;49099;28.428;-16.488;2023-04-03T04:28:20;17.20;;;3.40;;
63008;SDS011;49099;28.428;-16.488;2023-04-03T04:30:47;21.75;;;3.65;;
63008;SDS011;49099;28.428;-16.488;2023-04-03T04:33:14;17.65;;;3.50;;
63008;SDS011;49099;28.428;-16.488;2023-04-03T04:35:42;13.70;;;3.70;;
63008;SDS011;49099;28.428;-16.488;2023-04-03T04:38:10;15.90;;;2.97;;
63008;SDS011;49099;28.428;-16.488;2023-04-03T04:40:37;19.58;;;3.35;;
63008;SDS011;49099;28.428;-16.488;2023-04-03T04:43:04;16.58;;;3.20;;
63008;SDS011;49099;28.428;-16.488;2023-04-03T04:45:31;16.30;;;3.00;;
63008;SDS011;49099;28.428;-16.488;2023-04-03T04:47:59;16.67;;;3.38;;
63008;SDS011;49099;28.428;-16.488;2023-04-03T04:50:26;13.50;;;3.22;;
63008;SDS011;49099;28.428;-16.488;2023-04-03T04:52:53;15.48;;;3.03;;
63008;SDS011;49099;28.428;-16.488;2023-04-03T04:55:20;16.63;;;2.90;;
63008;SDS011;49099;28.428;-16.488;2023-04-03T04:57:47;13.98;;;3.10;;
63008;SDS011;49099;28.428;-16.488;2023-04-03T05:00:15;12.13;;;2.83;;
63008;SDS011;49099;28.428;-16.488;2023-04-03T05:02:42;14.32;;;3.22;;
63008;SDS011;49099;28.428;-16.488;2023-04-03T05:05:09;15.23;;;3.05;;
63008;SDS011;49099;28.428;-16.488;2023-04-03T05:07:36;16.80;;;3.28;;
63008;SDS011;49099;28.428;-16.488;2023-04-03T05:10:04;15.68;;;2.95;;
63008;SDS011;49099;28.428;-16.488;2023-04-03T05:12:32;14.38;;;2.80;;
63008;SDS011;49099;28.428;-16.488;2023-04-03T05:14:59;13.88;;;3.35;;
63008;SDS011;49099;28.428;-16.488;2023-04-03T05:17:26;19.50;;;3.90;;
63008;SDS011;49099;28.428;-16.488;2023-04-03T05:19:53;16.15;;;3.17;;
63008;SDS011;49099;28.428;-16.488;2023-04-03T05:22:20;16.63;;;3.03;;
63008;SDS011;49099;28.428;-16.488;2023-04-03T05:24:47;14.50;;;3.20;;
63008;SDS011;49099;28.428;-16.488;2023-04-03T05:27:14;16.75;;;3.55;;
63008;SDS011;49099;28.428;-16.488;2023-04-03T05:29:41;17.73;;;3.05;;
63008;SDS011;49099;28.428;-16.488;2023-04-03T05:32:10;19.58;;;3.20;;
63008;SDS011;49099;28.428;-16.488;2023-04-03T05:34:37;11.18;;;2.80;;
63008;SDS011;49099;28.428;-16.488;2023-04-03T05:37:04;16.13;;;3.22;;
63008;SDS011;49099;28.428;-16.488;2023-04-03T05:39:32;16.15;;;2.53;;
63008;SDS011;49099;28.428;-16.488;2023-04-03T05:42:00;16.90;;;3.50;;
63008;SDS011;49099;28.428;-16.488;2023-04-03T05:44:27;16.25;;;3.10;;
63008;SDS011;49099;28.428;-16.488;2023-04-03T05:46:54;15.05;;;3.30;;
63008;SDS011;49099;28.428;-16.488;2023-04-03T05:49:21;11.77;;;2.92;;
63008;SDS011;49099;28.428;-16.488;2023-04-03T05:51:48;13.02;;;3.20;;
63008;SDS011;49099;28.428;-16.488;2023-04-03T05:54:17;17.35;;;3.28;;
63008;SDS011;49099;28.428;-16.488;2023-04-03T05:56:47;12.88;;;2.90;;
63008;SDS011;49099;28.428;-16.488;2023-04-03T05:59:14;13.48;;;3.15;;
63008;SDS011;49099;28.428;-16.488;2023-04-03T06:01:43;15.98;;;3.10;;
63008;SDS011;49099;28.428;-16.488;2023-04-03T06:04:11;16.63;;;3.63;;
63008;SDS011;49099;28.428;-16.488;2023-04-03T06:06:43;15.32;;;3.35;;
63008;SDS011;49099;28.428;-16.488;2023-04-03T06:09:14;16.40;;;3.28;;
63008;SDS011;49099;28.428;-16.488;2023-04-03T06:11:43;14.18;;;3.35;;
63008;SDS011;49099;28.428;-16.488;2023-04-03T06:14:10;14.73;;;3.33;;
63008;SDS011;49099;28.428;-16.488;2023-04-03T06:16:38;12.68;;;2.80;;
63008;SDS011;49099;28.428;-16.488;2023-04-03T06:19:08;15.55;;;2.83;;
63008;SDS011;49099;28.428;-16.488;2023-04-03T06:21:37;15.73;;;2.85;;
63008;SDS011;49099;28.428;-16.488;2023-04-03T06:24:05;14.00;;;2.97;;
63008;SDS011;49099;28.428;-16.488;2023-04-03T06:26:34;16.63;;;2.85;;
63008;SDS011;49099;28.428;-16.488;2023-04-03T06:29:01;17.33;;;2.78;;
63008;SDS011;49099;28.428;-16.488;2023-04-03T06:31:29;12.35;;;2.55;;
63008;SDS011;49099;28.428;-16.488;2023-04-03T06:33:56;16.13;;;2.63;;
63008;SDS011;49099;28.428;-16.488;2023-04-03T06:36:24;15.82;;;2.85;;
63008;SDS011;49099;28.428;-16.488;2023-04-03T06:38:52;14.18;;;2.45;;
63008;SDS011;49099;28.428;-16.488;2023-04-03T06:41:19;12.88;;;2.42;;
63008;SDS011;49099;28.428;-16.488;2023-04-03T06:43:46;8.95;;;2.13;;
63008;SDS011;49099;28.428;-16.488;2023-04-03T06:46:14;14.15;;;2.45;;
63008;SDS011;49099;28.428;-16.488;2023-04-03T06:48:43;13.93;;;2.70;;
63008;SDS011;49099;28.428;-16.488;2023-04-03T06:51:33;11.07;;;2.20;;
63008;SDS011;49099;28.428;-16.488;2023-04-03T06:53:58;9.00;;;2.17;;
63008;SDS011;49099;28.428;-16.488;2023-04-03T06:56:27;11.45;;;2.17;;
63008;SDS011;49099;28.428;-16.488;2023-04-03T06:58:55;9.82;;;2.10;;
63008;SDS011;49099;28.428;-16.488;2023-04-03T07:01:28;13.80;;;2.60;;
63008;SDS011;49099;28.428;-16.488;2023-04-03T07:03:56;8.07;;;1.85;;
63008;SDS011;49099;28.428;-16.488;2023-04-03T07:06:24;18.55;;;2.70;;
63008;SDS011;49099;28.428;-16.488;2023-04-03T07:08:54;12.75;;;2.60;;
63008;SDS011;49099;28.428;-16.488;2023-04-03T07:11:22;12.02;;;2.33;;
63008;SDS011;49099;28.428;-16.488;2023-04-03T07:13:49;18.83;;;2.67;;
63008;SDS011;49099;28.428;-16.488;2023-04-03T07:16:17;12.48;;;2.35;;
63008;SDS011;49099;28.428;-16.488;2023-04-03T07:18:45;12.90;;;2.08;;
63008;SDS011;49099;28.428;-16.488;2023-04-03T07:21:13;10.80;;;2.55;;
63008;SDS011;49099;28.428;-16.488;2023-04-03T07:23:40;12.00;;;2.20;;
63008;SDS011;49099;28.428;-16.488;2023-04-03T07:26:07;11.82;;;2.28;;
63008;SDS011;49099;28.428;-16.488;2023-04-03T07:28:35;12.30;;;2.08;;
63008;SDS011;49099;28.428;-16.488;2023-04-03T07:31:04;11.73;;;2.30;;
63008;SDS011;49099;28.428;-16.488;2023-04-03T07:33:35;10.98;;;2.35;;
63008;SDS011;49099;28.428;-16.488;2023-04-03T07:36:02;11.18;;;2.10;;
63008;SDS011;49099;28.428;-16.488;2023-04-03T07:38:31;14.63;;;2.30;;
63008;SDS011;49099;28.428;-16.488;2023-04-03T07:40:58;9.90;;;2.08;;
63008;SDS011;49099;28.428;-16.488;2023-04-03T07:43:25;10.10;;;1.98;;
63008;SDS011;49099;28.428;-16.488;2023-04-03T07:45:52;15.93;;;2.67;;
63008;SDS011;49099;28.428;-16.488;2023-04-03T07:48:21;10.98;;;2.10;;
63008;SDS011;49099;28.428;-16.488;2023-04-03T07:50:50;12.93;;;2.50;;
63008;SDS011;49099;28.428;-16.488;2023-04-03T07:53:18;14.25;;;2.33;;
63008;SDS011;49099;28.428;-16.488;2023-04-03T07:55:46;16.75;;;2.30;;
63008;SDS011;49099;28.428;-16.488;2023-04-03T07:58:16;6.93;;;1.90;;
63008;SDS011;49099;28.428;-16.488;2023-04-03T08:00:44;9.95;;;1.92;;
63008;SDS011;49099;28.428;-16.488;2023-04-03T08:03:12;11.30;;;1.98;;
63008;SDS011;49099;28.428;-16.488;2023-04-03T08:05:40;10.27;;;1.88;;
63008;SDS011;49099;28.428;-16.488;2023-04-03T08:08:10;11.63;;;1.90;;
63008;SDS011;49099;28.428;-16.488;2023-04-03T08:10:40;13.95;;;2.40;;
63008;SDS011;49099;28.428;-16.488;2023-04-03T08:13:08;8.30;;;1.92;;
63008;SDS011;49099;28.428;-16.488;2023-04-03T08:15:36;10.63;;;1.88;;
63008;SDS011;49099;28.428;-16.488;2023-04-03T08:18:04;11.80;;;2.38;;
63008;SDS011;49099;28.428;-16.488;2023-04-03T08:20:31;14.15;;;2.47;;
63008;SDS011;49099;28.428;-16.488;2023-04-03T08:22:58;8.68;;;2.10;;
63008;SDS011;49099;28.428;-16.488;2023-04-03T08:25:25;18.98;;;3.17;;
63008;SDS011;49099;28.428;-16.488;2023-04-03T08:27:53;25.63;;;3.45;;
63008;SDS011;49099;28.428;-16.488;2023-04-03T08:30:20;15.35;;;2.55;;
63008;SDS011;49099;28.428;-16.488;2023-04-03T08:32:47;14.55;;;2.53;;
63008;SDS011;49099;28.428;-16.488;2023-04-03T08:35:14;16.38;;;2.92;;
63008;SDS011;49099;28.428;-16.488;2023-04-03T08:37:41;16.58;;;3.28;;
63008;SDS011;49099;28.428;-16.488;2023-04-03T08:40:12;13.40;;;2.65;;
63008;SDS011;49099;28.428;-16.488;2023-04-03T08:45:48;16.02;;;3.20;;
63008;SDS011;49099;28.428;-16.488;2023-04-03T08:48:30;27.60;;;3.42;;
63008;SDS011;49099;28.428;-16.488;2023-04-03T08:51:03;19.50;;;2.70;;
63008;SDS011;49099;28.428;-16.488;2023-04-03T08:53:40;13.95;;;2.75;;
63008;SDS011;49099;28.428;-16.488;2023-04-03T08:56:12;18.73;;;3.03;;
63008;SDS011;49099;28.428;-16.488;2023-04-03T08:58:52;17.77;;;2.60;;
63008;SDS011;49099;28.428;-16.488;2023-04-03T09:01:36;12.52;;;3.33;;
63008;SDS011;49099;28.428;-16.488;2023-04-03T09:04:11;12.90;;;2.53;;
63008;SDS011;49099;28.428;-16.488;2023-04-03T09:06:44;12.00;;;2.40;;
63008;SDS011;49099;28.428;-16.488;2023-04-03T09:15:18;12.63;;;2.38;;
63008;SDS011;49099;28.428;-16.488;2023-04-03T09:21:02;10.35;;;2.25;;
63008;SDS011;49099;28.428;-16.488;2023-04-03T09:26:25;18.35;;;2.53;;
63008;SDS011;49099;28.428;-16.488;2023-04-03T09:28:58;12.43;;;2.22;;
63008;SDS011;49099;28.428;-16.488;2023-04-03T09:31:38;17.80;;;2.42;;
63008;SDS011;49099;28.428;-16.488;2023-04-03T09:34:13;14.60;;;2.13;;
63008;SDS011;49099;28.428;-16.488;2023-04-03T09:36:51;13.43;;;1.92;;
63008;SDS011;49099;28.428;-16.488;2023-04-03T09:39:25;13.18;;;2.30;;
63008;SDS011;49099;28.428;-16.488;2023-04-03T09:44:32;13.48;;;2.30;;
63008;SDS011;49099;28.428;-16.488;2023-04-03T09:47:23;7.32;;;1.95;;
63008;SDS011;49099;28.428;-16.488;2023-04-03T09:49:49;14.30;;;2.22;;
63008;SDS011;49099;28.428;-16.488;2023-04-03T09:52:22;12.10;;;2.25;;
63008;SDS011;49099;28.428;-16.488;2023-04-03T09:54:51;13.23;;;2.20;;
63008;SDS011;49099;28.428;-16.488;2023-04-03T09:57:18;15.38;;;2.15;;
63008;SDS011;49099;28.428;-16.488;2023-04-03T09:59:58;10.65;;;2.40;;
63008;SDS011;49099;28.428;-16.488;2023-04-03T10:03:02;14.30;;;2.15;;
63008;SDS011;49099;28.428;-16.488;2023-04-03T10:05:40;11.32;;;1.90;;
63008;SDS011;49099;28.428;-16.488;2023-04-03T10:10:36;11.63;;;2.60;;
63008;SDS011;49099;28.428;-16.488;2023-04-03T10:13:11;7.78;;;1.65;;
63008;SDS011;49099;28.428;-16.488;2023-04-03T10:16:09;11.95;;;2.20;;
63008;SDS011;49099;28.428;-16.488;2023-04-03T10:21:48;10.60;;;1.95;;
63008;SDS011;49099;28.428;-16.488;2023-04-03T10:24:28;13.38;;;2.78;;
63008;SDS011;49099;28.428;-16.488;2023-04-03T10:41:48;8.40;;;1.70;;
63008;SDS011;49099;28.428;-16.488;2023-04-03T10:55:47;15.57;;;1.50;;
63008;SDS011;49099;28.428;-16.488;2023-04-03T10:58:24;9.63;;;1.42;;
63008;SDS011;49099;28.428;-16.488;2023-04-03T11:01:01;5.47;;;1.50;;
63008;SDS011;49099;28.428;-16.488;2023-04-03T11:03:35;7.57;;;1.17;;
63008;SDS011;49099;28.428;-16.488;2023-04-03T11:06:08;6.93;;;1.40;;
63008;SDS011;49099;28.428;-16.488;2023-04-03T11:08:45;5.32;;;1.08;;
63008;SDS011;49099;28.428;-16.488;2023-04-03T11:11:30;4.47;;;1.38;;
63008;SDS011;49099;28.428;-16.488;2023-04-03T11:14:13;8.00;;;1.85;;
63008;SDS011;49099;28.428;-16.488;2023-04-03T11:22:30;10.40;;;1.70;;
63008;SDS011;49099;28.428;-16.488;2023-04-03T11:27:40;11.15;;;1.90;;
63008;SDS011;49099;28.428;-16.488;2023-04-03T11:36:33;7.63;;;1.60;;
63008;SDS011;49099;28.428;-16.488;2023-04-03T11:45:22;10.25;;;1.70;;
63008;SDS011;49099;28.428;-16.488;2023-04-03T11:50:38;11.02;;;1.45;;
63008;SDS011;49099;28.428;-16.488;2023-04-03T12:01:46;8.63;;;1.43;;
63008;SDS011;49099;28.428;-16.488;2023-04-03T12:04:14;7.53;;;1.80;;
63008;SDS011;49099;28.428;-16.488;2023-04-03T12:11:51;7.63;;;1.58;;
63008;SDS011;49099;28.428;-16.488;2023-04-03T12:14:20;10.27;;;1.60;;
63008;SDS011;49099;28.428;-16.488;2023-04-03T12:16:52;7.47;;;1.40;;
63008;SDS011;49099;28.428;-16.488;2023-04-03T12:19:29;10.35;;;1.48;;
63008;SDS011;49099;28.428;-16.488;2023-04-03T12:22:11;7.68;;;1.60;;
63008;SDS011;49099;28.428;-16.488;2023-04-03T12:24:44;14.35;;;1.80;;
63008;SDS011;49099;28.428;-16.488;2023-04-03T12:30:04;9.82;;;1.60;;
63008;SDS011;49099;28.428;-16.488;2023-04-03T12:41:44;12.23;;;1.52;;
63008;SDS011;49099;28.428;-16.488;2023-04-03T12:44:59;8.88;;;1.33;;
63008;SDS011;49099;28.428;-16.488;2023-04-03T12:47:34;6.22;;;1.30;;
63008;SDS011;49099;28.428;-16.488;2023-04-03T12:50:04;8.15;;;1.45;;
63008;SDS011;49099;28.428;-16.488;2023-04-03T12:52:47;8.18;;;1.65;;
63008;SDS011;49099;28.428;-16.488;2023-04-03T12:55:20;7.43;;;1.45;;
63008;SDS011;49099;28.428;-16.488;2023-04-03T12:57:48;11.55;;;1.85;;
63008;SDS011;49099;28.428;-16.488;2023-04-03T13:03:02;13.07;;;1.75;;
63008;SDS011;49099;28.428;-16.488;2023-04-03T13:05:31;7.57;;;1.48;;
63008;SDS011;49099;28.428;-16.488;2023-04-03T13:08:06;9.00;;;1.70;;
63008;SDS011;49099;28.428;-16.488;2023-04-03T13:10:50;8.73;;;1.90;;
63008;SDS011;49099;28.428;-16.488;2023-04-03T13:13:38;9.07;;;1.92;;
63008;SDS011;49099;28.428;-16.488;2023-04-03T13:16:09;14.32;;;1.88;;
63008;SDS011;49099;28.428;-16.488;2023-04-03T13:18:38;6.78;;;1.58;;
63008;SDS011;49099;28.428;-16.488;2023-04-03T13:21:12;10.80;;;1.75;;
63008;SDS011;49099;28.428;-16.488;2023-04-03T13:23:45;6.78;;;1.50;;
63008;SDS011;49099;28.428;-16.488;2023-04-03T13:26:18;9.68;;;1.67;;
63008;SDS011;49099;28.428;-16.488;2023-04-03T13:28:48;7.65;;;1.60;;
63008;SDS011;49099;28.428;-16.488;2023-04-03T13:31:21;8.10;;;1.80;;
63008;SDS011;49099;28.428;-16.488;2023-04-03T13:36:20;11.35;;;1.80;;
63008;SDS011;49099;28.428;-16.488;2023-04-03T13:38:58;9.65;;;1.70;;
63008;SDS011;49099;28.428;-16.488;2023-04-03T13:41:38;6.78;;;1.70;;
63008;SDS011;49099;28.428;-16.488;2023-04-03T13:46:44;7.95;;;1.67;;
63008;SDS011;49099;28.428;-16.488;2023-04-03T13:49:18;10.27;;;1.58;;
63008;SDS011;49099;28.428;-16.488;2023-04-03T13:51:49;12.57;;;2.13;;
63008;SDS011;49099;28.428;-16.488;2023-04-03T13:54:35;10.38;;;1.52;;
63008;SDS011;49099;28.428;-16.488;2023-04-03T13:57:12;6.45;;;1.48;;
63008;SDS011;49099;28.428;-16.488;2023-04-03T13:59:41;9.98;;;1.88;;
63008;SDS011;49099;28.428;-16.488;2023-04-03T14:02:15;8.15;;;1.58;;
63008;SDS011;49099;28.428;-16.488;2023-04-03T14:04:52;8.05;;;1.80;;
63008;SDS011;49099;28.428;-16.488;2023-04-03T14:07:25;9.70;;;2.00;;
63008;SDS011;49099;28.428;-16.488;2023-04-03T14:09:53;9.50;;;1.88;;
63008;SDS011;49099;28.428;-16.488;2023-04-03T14:15:00;22.50;;;1.92;;
63008;SDS011;49099;28.428;-16.488;2023-04-03T14:17:31;9.18;;;1.90;;
63008;SDS011;49099;28.428;-16.488;2023-04-03T14:19:58;8.45;;;2.00;;
63008;SDS011;49099;28.428;-16.488;2023-04-03T14:22:28;9.80;;;1.90;;
63008;SDS011;49099;28.428;-16.488;2023-04-03T14:24:59;11.10;;;1.90;;
63008;SDS011;49099;28.428;-16.488;2023-04-03T14:27:28;12.68;;;2.17;;
63008;SDS011;49099;28.428;-16.488;2023-04-03T14:30:07;10.55;;;1.67;;
63008;SDS011;49099;28.428;-16.488;2023-04-03T14:32:47;10.95;;;1.98;;
63008;SDS011;49099;28.428;-16.488;2023-04-03T14:35:15;11.10;;;1.88;;
63008;SDS011;49099;28.428;-16.488;2023-04-03T14:37:43;9.27;;;1.77;;
63008;SDS011;49099;28.428;-16.488;2023-04-03T14:40:12;10.45;;;1.98;;
63008;SDS011;49099;28.428;-16.488;2023-04-03T14:42:43;9.73;;;1.88;;
63008;SDS011;49099;28.428;-16.488;2023-04-03T14:45:11;7.05;;;1.40;;
63008;SDS011;49099;28.428;-16.488;2023-04-03T14:47:41;10.98;;;1.98;;
63008;SDS011;49099;28.428;-16.488;2023-04-03T14:50:15;8.13;;;1.98;;
63008;SDS011;49099;28.428;-16.488;2023-04-03T14:52:53;10.13;;;1.70;;
63008;SDS011;49099;28.428;-16.488;2023-04-03T14:55:23;10.27;;;1.80;;
63008;SDS011;49099;28.428;-16.488;2023-04-03T14:57:52;9.23;;;1.83;;
63008;SDS011;49099;28.428;-16.488;2023-04-03T15:00:20;9.43;;;1.65;;
63008;SDS011;49099;28.428;-16.488;2023-04-03T15:02:48;9.10;;;1.95;;
63008;SDS011;49099;28.428;-16.488;2023-04-03T15:05:16;10.50;;;1.98;;
63008;SDS011;49099;28.428;-16.488;2023-04-03T15:07:48;8.75;;;1.60;;
63008;SDS011;49099;28.428;-16.488;2023-04-03T15:10:29;9.43;;;2.30;;
63008;SDS011;49099;28.428;-16.488;2023-04-03T15:12:57;13.70;;;1.85;;
63008;SDS011;49099;28.428;-16.488;2023-04-03T15:15:26;11.55;;;1.95;;
63008;SDS011;49099;28.428;-16.488;2023-04-03T15:17:55;16.73;;;2.28;;
63008;SDS011;49099;28.428;-16.488;2023-04-03T15:20:27;11.90;;;2.17;;
63008;SDS011;49099;28.428;-16.488;2023-04-03T15:22:57;12.63;;;1.85;;
63008;SDS011;49099;28.428;-16.488;2023-04-03T15:25:27;12.07;;;2.00;;
63008;SDS011;49099;28.428;-16.488;2023-04-03T15:27:55;10.75;;;1.67;;
63008;SDS011;49099;28.428;-16.488;2023-04-03T15:30:23;9.27;;;1.73;;
63008;SDS011;49099;28.428;-16.488;2023-04-03T15:32:51;9.13;;;1.98;;
63008;SDS011;49099;28.428;-16.488;2023-04-03T15:35:19;12.63;;;2.05;;
63008;SDS011;49099;28.428;-16.488;2023-04-03T15:37:47;9.35;;;1.70;;
63008;SDS011;49099;28.428;-16.488;2023-04-03T15:40:15;13.57;;;2.28;;
63008;SDS011;49099;28.428;-16.488;2023-04-03T15:42:42;8.93;;;1.80;;
63008;SDS011;49099;28.428;-16.488;2023-04-03T15:45:09;11.30;;;2.33;;
63008;SDS011;49099;28.428;-16.488;2023-04-03T15:47:37;9.13;;;1.85;;
63008;SDS011;49099;28.428;-16.488;2023-04-03T15:50:05;9.05;;;1.98;;
63008;SDS011;49099;28.428;-16.488;2023-04-03T15:52:34;13.55;;;1.80;;
63008;SDS011;49099;28.428;-16.488;2023-04-03T15:55:03;12.35;;;2.00;;
63008;SDS011;49099;28.428;-16.488;2023-04-03T15:57:31;6.70;;;1.45;;
63008;SDS011;49099;28.428;-16.488;2023-04-03T16:00:03;8.90;;;1.70;;
63008;SDS011;49099;28.428;-16.488;2023-04-03T16:02:31;10.70;;;1.80;;
63008;SDS011;49099;28.428;-16.488;2023-04-03T16:04:59;10.70;;;2.00;;
63008;SDS011;49099;28.428;-16.488;2023-04-03T16:07:27;10.27;;;1.80;;
63008;SDS011;49099;28.428;-16.488;2023-04-03T16:09:54;12.75;;;2.28;;
63008;SDS011;49099;28.428;-16.488;2023-04-03T16:12:22;11.13;;;2.13;;
63008;SDS011;49099;28.428;-16.488;2023-04-03T16:14:49;11.93;;;2.40;;
63008;SDS011;49099;28.428;-16.488;2023-04-03T16:17:16;8.38;;;1.80;;
63008;SDS011;49099;28.428;-16.488;2023-04-03T16:19:43;10.05;;;2.00;;
63008;SDS011;49099;28.428;-16.488;2023-04-03T16:22:10;7.68;;;1.80;;
63008;SDS011;49099;28.428;-16.488;2023-04-03T16:24:37;9.80;;;1.95;;